createdAt,value
2023-02-17T00:00:32.553Z,28.36
2023-02-17T00:03:03.819Z,27.93
2023-02-17T00:05:35.674Z,28.30
2023-02-17T00:08:05.949Z,29.20
2023-02-17T00:10:37.350Z,28.22
2023-02-17T00:13:08.629Z,28.68
2023-02-17T00:15:42.473Z,27.58
2023-02-17T00:18:13.495Z,26.66
2023-02-17T00:20:45.906Z,26.03
2023-02-17T00:23:17.381Z,27.64
2023-02-17T00:25:48.181Z,28.36
2023-02-17T00:28:19.438Z,28.85
2023-02-17T00:30:50.693Z,28.47
2023-02-17T00:33:23.469Z,27.89
2023-02-17T00:35:54.481Z,28.90
2023-02-17T00:38:25.553Z,28.98
2023-02-17T00:40:57.299Z,27.37
2023-02-17T00:43:28.638Z,27.74
2023-02-17T00:45:59.809Z,28.59
2023-02-17T00:48:30.905Z,27.95
2023-02-17T00:51:02.158Z,28.20
2023-02-17T00:53:33.493Z,27.83
2023-02-17T00:56:04.898Z,28.26
2023-02-17T00:58:36.955Z,26.99
2023-02-17T01:01:08.036Z,26.60
2023-02-17T01:03:39.248Z,26.33
2023-02-17T01:06:13.255Z,27.77
2023-02-17T01:08:44.279Z,28.08
2023-02-17T01:11:21.727Z,28.57
2023-02-17T01:13:53.000Z,28.87
2023-02-17T01:16:27.869Z,28.83
2023-02-17T01:19:02.392Z,28.29
2023-02-17T01:21:35.123Z,28.76
2023-02-17T01:24:08.851Z,29.07
2023-02-17T01:26:40.924Z,29.70
2023-02-17T01:29:11.994Z,30.08
2023-02-17T01:31:43.480Z,29.67
2023-02-17T01:34:15.394Z,29.91
2023-02-17T01:36:46.383Z,29.30
2023-02-17T01:39:18.286Z,29.65
2023-02-17T01:41:50.144Z,27.86
2023-02-17T01:44:26.098Z,27.65
2023-02-17T01:46:58.190Z,27.22
2023-02-17T01:49:35.695Z,28.06
2023-02-17T01:52:14.908Z,28.61
2023-02-17T01:54:57.880Z,27.23
2023-02-17T01:57:33.868Z,27.26
2023-02-17T02:00:06.325Z,27.36
2023-02-17T02:02:44.996Z,28.33
2023-02-17T02:05:18.676Z,28.85
2023-02-17T02:07:51.155Z,29.23
2023-02-17T02:10:22.588Z,29.69
2023-02-17T02:12:53.804Z,28.57
2023-02-17T02:15:31.440Z,28.87
2023-02-17T02:18:28.769Z,29.64
2023-02-17T02:21:09.382Z,28.64
2023-02-17T02:23:57.478Z,29.21
2023-02-17T02:26:52.337Z,29.42
2023-02-17T02:29:31.705Z,29.49
2023-02-17T02:32:20.878Z,29.82
2023-02-17T02:35:03.984Z,30.08
2023-02-17T02:37:39.109Z,29.04
2023-02-17T02:40:11.958Z,30.13
2023-02-17T02:42:44.050Z,29.88
2023-02-17T02:45:15.543Z,27.90
2023-02-17T02:47:53.061Z,27.28
2023-02-17T02:50:49.646Z,26.70
2023-02-17T02:53:53.243Z,28.36
2023-02-17T02:56:27.696Z,28.74
2023-02-17T02:59:42.526Z,29.14
2023-02-17T03:02:22.640Z,28.62
2023-02-17T03:05:18.197Z,29.87
2023-02-17T03:08:03.663Z,27.34
2023-02-17T03:10:35.065Z,27.19
2023-02-17T03:13:05.663Z,27.61
2023-02-17T03:15:37.621Z,28.34
2023-02-17T03:18:10.168Z,28.03
2023-02-17T03:20:51.694Z,27.02
2023-02-17T03:23:23.367Z,26.15
2023-02-17T03:25:54.847Z,26.79
2023-02-17T03:28:27.070Z,27.75
2023-02-17T03:30:58.737Z,27.95
2023-02-17T03:33:30.312Z,28.11
2023-02-17T03:36:03.002Z,28.32
2023-02-17T03:38:34.195Z,29.25
2023-02-17T03:41:05.371Z,28.20
2023-02-17T03:43:36.861Z,28.23
2023-02-17T03:46:12.079Z,28.37
2023-02-17T03:48:43.582Z,28.10
2023-02-17T03:51:14.047Z,28.02
2023-02-17T03:53:45.938Z,27.90
2023-02-17T03:56:17.527Z,27.97
2023-02-17T03:58:48.759Z,28.19
2023-02-17T04:01:19.401Z,28.06
2023-02-17T04:03:50.704Z,27.77
2023-02-17T04:06:22.037Z,27.75
2023-02-17T04:08:53.490Z,27.48
2023-02-17T04:11:24.579Z,27.81
2023-02-17T04:13:55.731Z,27.54
2023-02-17T04:16:26.793Z,27.18
2023-02-17T04:18:58.212Z,27.29
2023-02-17T04:21:28.857Z,27.41
2023-02-17T04:24:01.961Z,27.18
2023-02-17T04:26:34.060Z,27.37
2023-02-17T04:29:05.766Z,27.27
2023-02-17T04:31:36.322Z,26.33
2023-02-17T04:34:07.586Z,27.11
2023-02-17T04:36:38.681Z,27.51
2023-02-17T04:39:09.433Z,27.22
2023-02-17T04:41:40.460Z,26.90
2023-02-17T04:44:11.636Z,27.02
2023-02-17T04:46:42.765Z,26.56
2023-02-17T04:49:13.781Z,26.69
2023-02-17T04:51:44.753Z,26.33
2023-02-17T04:54:16.241Z,26.68
2023-02-17T04:56:47.373Z,26.10
2023-02-17T04:59:18.574Z,26.56
2023-02-17T05:01:50.095Z,26.14
2023-02-17T05:04:22.158Z,26.67
2023-02-17T05:06:53.375Z,26.18
2023-02-17T05:09:24.477Z,26.06
2023-02-17T05:11:55.510Z,25.34
2023-02-17T05:14:26.708Z,24.80
2023-02-17T05:16:57.868Z,24.31
2023-02-17T05:19:28.957Z,24.44
2023-02-17T05:22:00.169Z,24.30
2023-02-17T05:24:31.363Z,24.52
2023-02-17T05:27:03.269Z,24.62
2023-02-17T05:29:34.453Z,24.59
2023-02-17T05:32:05.508Z,25.04
2023-02-17T05:34:37.460Z,25.45
2023-02-17T05:37:08.918Z,25.42
2023-02-17T05:39:40.152Z,25.69
2023-02-17T05:42:11.320Z,25.26
2023-02-17T05:44:42.332Z,25.60
2023-02-17T05:47:13.407Z,25.16
2023-02-17T05:49:44.329Z,25.12
2023-02-17T05:52:16.608Z,25.05
2023-02-17T05:54:47.700Z,25.16
2023-02-17T05:57:18.476Z,25.07
2023-02-17T05:59:49.536Z,25.08
2023-02-17T06:02:20.857Z,24.66
2023-02-17T06:04:52.462Z,24.81
2023-02-17T06:07:23.582Z,24.76
2023-02-17T06:09:54.608Z,24.74
2023-02-17T06:12:25.920Z,24.63
2023-02-17T06:14:57.344Z,24.43
2023-02-17T06:17:28.831Z,24.07
2023-02-17T06:19:59.372Z,24.06
2023-02-17T06:22:30.253Z,23.78
2023-02-17T06:25:01.470Z,23.48
2023-02-17T06:27:33.676Z,23.44
2023-02-17T06:30:05.253Z,23.02
2023-02-17T06:32:36.317Z,23.06
2023-02-17T06:35:07.613Z,22.72
2023-02-17T06:37:38.938Z,22.84
2023-02-17T06:40:09.888Z,22.91
2023-02-17T06:42:40.961Z,22.80
2023-02-17T06:45:12.359Z,22.63
2023-02-17T06:47:43.587Z,22.72
2023-02-17T06:50:14.933Z,22.52
2023-02-17T06:52:45.549Z,22.33
2023-02-17T06:55:16.466Z,22.20
2023-02-17T06:57:47.425Z,22.21
2023-02-17T07:00:18.987Z,22.23
2023-02-17T07:02:50.192Z,22.01
2023-02-17T07:05:21.376Z,21.77
2023-02-17T07:07:54.691Z,21.84
2023-02-17T07:10:25.905Z,21.71
2023-02-17T07:12:56.907Z,21.67
2023-02-17T07:15:28.306Z,21.63
2023-02-17T07:17:59.339Z,21.51
2023-02-17T07:20:30.842Z,21.36
2023-02-17T07:23:02.960Z,21.40
2023-02-17T07:25:34.770Z,21.16
2023-02-17T07:28:06.637Z,21.10
2023-02-17T07:30:45.032Z,21.11
2023-02-17T07:33:16.396Z,20.82
2023-02-17T07:35:47.555Z,20.77
2023-02-17T07:38:18.806Z,20.54
2023-02-17T07:40:50.061Z,20.77
2023-02-17T07:43:21.323Z,20.51
2023-02-17T07:45:59.258Z,20.49
2023-02-17T07:48:30.607Z,20.30
2023-02-17T07:51:10.799Z,20.28
2023-02-17T07:53:42.335Z,20.11
2023-02-17T07:56:16.172Z,20.19
2023-02-17T07:58:48.007Z,20.09
2023-02-17T08:01:21.763Z,19.86
2023-02-17T08:03:53.438Z,20.01
2023-02-17T08:06:25.014Z,20.03
2023-02-17T08:09:14.825Z,19.90
2023-02-17T08:12:06.013Z,20.02
2023-02-17T08:14:38.728Z,19.94
2023-02-17T08:17:10.393Z,19.86
2023-02-17T08:19:48.334Z,20.04
2023-02-17T08:22:20.631Z,19.97
2023-02-17T08:24:52.219Z,19.94
2023-02-17T08:27:23.848Z,19.94
2023-02-17T08:29:56.099Z,19.92
2023-02-17T08:32:26.783Z,19.93
2023-02-17T08:34:58.721Z,19.97
2023-02-17T08:37:29.893Z,19.98
2023-02-17T08:40:00.971Z,19.88
2023-02-17T08:42:34.573Z,19.89
2023-02-17T08:45:06.936Z,19.81
2023-02-17T08:47:38.859Z,19.67
2023-02-17T08:50:12.372Z,19.65
2023-02-17T08:52:43.819Z,19.50
2023-02-17T08:55:16.590Z,19.47
2023-02-17T08:57:47.866Z,19.37
2023-02-17T09:00:20.366Z,19.28
2023-02-17T09:02:51.981Z,19.17
2023-02-17T09:05:23.116Z,19.14
2023-02-17T09:07:54.067Z,19.02
2023-02-17T09:10:25.376Z,18.89
2023-02-17T09:12:56.698Z,19.03
2023-02-17T09:15:27.956Z,18.85
2023-02-17T09:17:59.390Z,18.73
2023-02-17T09:20:31.304Z,18.68
2023-02-17T09:23:02.757Z,18.72
2023-02-17T09:25:33.905Z,18.60
2023-02-17T09:28:04.905Z,18.60
2023-02-17T09:30:36.643Z,18.46
2023-02-17T09:33:08.206Z,18.54
2023-02-17T09:35:39.585Z,18.41
2023-02-17T09:38:11.700Z,18.43
2023-02-17T09:40:51.175Z,18.43
2023-02-17T09:43:27.482Z,18.47
2023-02-17T09:46:05.260Z,18.44
2023-02-17T09:48:37.163Z,18.41
2023-02-17T09:51:20.830Z,18.50
2023-02-17T09:53:58.792Z,18.38
2023-02-17T09:56:35.538Z,18.39
2023-02-17T09:59:14.077Z,18.10
2023-02-17T10:01:45.768Z,18.19
2023-02-17T10:04:23.797Z,18.19
2023-02-17T10:07:03.814Z,18.12
2023-02-17T10:09:39.157Z,17.99
2023-02-17T10:12:15.242Z,17.99
2023-02-17T10:14:56.233Z,17.80
2023-02-17T10:17:51.677Z,17.89
2023-02-17T10:20:26.974Z,17.80
2023-02-17T10:23:07.555Z,17.83
2023-02-17T10:26:15.748Z,17.80
2023-02-17T10:28:53.742Z,17.51
2023-02-17T10:31:31.051Z,17.58
2023-02-17T10:34:06.271Z,17.58
2023-02-17T10:36:59.059Z,17.48
2023-02-17T10:39:50.497Z,17.46
2023-02-17T10:42:42.249Z,17.42
2023-02-17T10:45:25.842Z,17.41
2023-02-17T10:48:05.975Z,17.43
2023-02-17T10:50:39.464Z,17.27
2023-02-17T10:53:35.572Z,17.26
2023-02-17T10:56:20.726Z,17.07
2023-02-17T10:59:35.866Z,17.04
2023-02-17T11:02:42.346Z,17.13
2023-02-17T11:05:30.611Z,17.01
2023-02-17T11:08:21.571Z,17.00
2023-02-17T11:11:02.079Z,17.10
2023-02-17T11:14:07.397Z,17.11
2023-02-17T11:16:48.532Z,17.11
2023-02-17T11:19:38.359Z,17.13
2023-02-17T11:22:41.778Z,17.06
2023-02-17T11:25:36.367Z,16.98
2023-02-17T11:28:12.916Z,16.95
2023-02-17T11:30:52.519Z,16.83
2023-02-17T11:33:41.927Z,16.74
2023-02-17T11:36:28.436Z,16.75
2023-02-17T11:39:02.092Z,16.68
2023-02-17T11:41:42.399Z,16.47
2023-02-17T11:44:14.242Z,16.43
2023-02-17T11:46:57.400Z,16.53
2023-02-17T11:49:48.537Z,16.35
2023-02-17T11:52:37.863Z,16.20
2023-02-17T11:55:09.385Z,16.33
2023-02-17T11:57:47.264Z,16.29
2023-02-17T12:00:20.765Z,16.18
2023-02-17T12:03:01.825Z,16.21
2023-02-17T12:05:51.193Z,16.08
2023-02-17T12:08:47.662Z,16.10
2023-02-17T12:11:41.050Z,15.97
2023-02-17T12:14:40.378Z,15.91
2023-02-17T12:18:08.047Z,16.07
2023-02-17T12:21:18.786Z,15.87
2023-02-17T12:24:03.121Z,15.92
2023-02-17T12:26:49.675Z,15.88
2023-02-17T12:29:44.368Z,15.90
2023-02-17T12:32:40.286Z,15.82
2023-02-17T12:35:42.551Z,15.70
2023-02-17T12:38:20.384Z,15.79
2023-02-17T12:41:11.762Z,15.75
2023-02-17T12:43:49.411Z,15.75
2023-02-17T12:46:47.201Z,15.68
2023-02-17T12:49:31.255Z,15.70
2023-02-17T12:52:12.704Z,15.69
2023-02-17T12:55:14.028Z,15.63
2023-02-17T12:58:14.080Z,15.62
2023-02-17T13:00:53.337Z,15.68
2023-02-17T13:03:24.954Z,15.64
2023-02-17T13:06:05.705Z,15.65
2023-02-17T13:08:40.040Z,15.61
2023-02-17T13:11:33.829Z,15.55
2023-02-17T13:14:26.800Z,15.53
2023-02-17T13:16:58.150Z,15.44
2023-02-17T13:19:34.573Z,15.32
2023-02-17T13:22:07.041Z,15.36
2023-02-17T13:24:41.377Z,15.41
2023-02-17T13:27:23.283Z,15.25
2023-02-17T13:30:20.598Z,15.30
2023-02-17T13:33:05.435Z,15.20
2023-02-17T13:35:38.754Z,15.20
2023-02-17T13:38:12.866Z,15.10
2023-02-17T13:40:45.917Z,14.94
2023-02-17T13:43:19.237Z,15.07
2023-02-17T13:45:53.235Z,15.01
2023-02-17T13:48:24.694Z,15.09
2023-02-17T13:50:59.395Z,15.10
2023-02-17T13:53:38.052Z,15.11
2023-02-17T13:56:28.374Z,15.03
2023-02-17T13:59:20.717Z,14.98
2023-02-17T14:01:52.439Z,14.93
2023-02-17T14:04:25.977Z,14.95
2023-02-17T14:07:04.261Z,14.94
2023-02-17T14:09:36.910Z,14.86
2023-02-17T14:12:25.128Z,14.89
2023-02-17T14:14:56.321Z,14.89
2023-02-17T14:17:36.754Z,14.79
2023-02-17T14:20:09.049Z,14.87
2023-02-17T14:22:40.250Z,14.89
2023-02-17T14:25:16.700Z,14.85
2023-02-17T14:27:49.700Z,14.90
2023-02-17T14:30:41.069Z,14.78
2023-02-17T14:33:21.716Z,14.81
2023-02-17T14:35:53.328Z,14.76
2023-02-17T14:38:27.923Z,14.76
2023-02-17T14:41:02.593Z,14.71
2023-02-17T14:43:33.662Z,14.75
2023-02-17T14:46:05.991Z,14.76
2023-02-17T14:48:42.180Z,14.60
2023-02-17T14:51:37.297Z,14.70
2023-02-17T14:54:19.441Z,14.60
2023-02-17T14:56:54.280Z,14.57
2023-02-17T14:59:25.621Z,14.52
2023-02-17T15:01:57.207Z,14.48
2023-02-17T15:04:28.461Z,14.59
2023-02-17T15:06:59.555Z,14.57
2023-02-17T15:09:34.343Z,14.59
2023-02-17T15:12:07.363Z,14.54
2023-02-17T15:14:38.368Z,14.66
2023-02-17T15:17:10.134Z,14.63
2023-02-17T15:19:41.334Z,14.59
2023-02-17T15:22:14.198Z,14.62
2023-02-17T15:24:45.453Z,14.51
2023-02-17T15:27:18.323Z,14.62
2023-02-17T15:29:49.529Z,14.44
2023-02-17T15:32:21.142Z,14.50
2023-02-17T15:34:52.412Z,14.45
2023-02-17T15:37:27.227Z,14.45
2023-02-17T15:39:58.342Z,14.47
2023-02-17T15:42:29.684Z,14.39
2023-02-17T15:45:00.872Z,14.35
2023-02-17T15:47:33.405Z,14.19
2023-02-17T15:50:04.874Z,14.30
2023-02-17T15:52:36.419Z,14.35
2023-02-17T15:55:08.268Z,14.41
2023-02-17T15:57:41.715Z,14.36
2023-02-17T16:00:25.354Z,14.34
2023-02-17T16:02:56.999Z,14.32
2023-02-17T16:05:30.929Z,14.21
2023-02-17T16:08:02.567Z,14.25
2023-02-17T16:10:34.628Z,14.19
2023-02-17T16:13:06.434Z,14.15
2023-02-17T16:15:39.028Z,14.19
2023-02-17T16:18:25.089Z,14.10
2023-02-17T16:20:56.116Z,14.02
2023-02-17T16:23:27.467Z,14.06
2023-02-17T16:25:58.842Z,14.15
2023-02-17T16:28:30.520Z,14.10
2023-02-17T16:31:01.651Z,14.02
2023-02-17T16:33:32.843Z,14.16
2023-02-17T16:36:04.535Z,14.07
2023-02-17T16:38:36.532Z,14.02
2023-02-17T16:41:09.233Z,13.99
2023-02-17T16:43:40.548Z,14.07
2023-02-17T16:46:22.382Z,14.08
2023-02-17T16:48:53.339Z,13.97
2023-02-17T16:51:24.646Z,13.98
2023-02-17T16:53:55.971Z,13.87
2023-02-17T16:56:32.531Z,13.93
2023-02-17T16:59:04.018Z,14.10
2023-02-17T17:01:35.020Z,14.05
2023-02-17T17:04:06.898Z,13.99
2023-02-17T17:06:39.607Z,14.06
2023-02-17T17:09:11.075Z,14.01
2023-02-17T17:11:42.513Z,14.05
2023-02-17T17:14:14.142Z,13.98
2023-02-17T17:16:51.515Z,13.98
2023-02-17T17:19:23.346Z,13.96
2023-02-17T17:21:54.598Z,13.86
2023-02-17T17:24:25.993Z,13.93
2023-02-17T17:26:57.375Z,14.02
2023-02-17T17:29:28.400Z,13.94
2023-02-17T17:31:59.581Z,13.92
2023-02-17T17:34:30.746Z,14.01
2023-02-17T17:37:02.176Z,13.84
2023-02-17T17:39:34.210Z,13.78
2023-02-17T17:42:06.828Z,13.78
2023-02-17T17:44:37.816Z,13.73
2023-02-17T17:47:09.236Z,13.70
2023-02-17T17:49:40.582Z,13.67
2023-02-17T17:52:11.948Z,13.60
2023-02-17T17:54:44.659Z,13.67
2023-02-17T17:57:15.741Z,13.55
2023-02-17T17:59:46.973Z,13.65
2023-02-17T18:02:18.488Z,13.65
2023-02-17T18:04:49.780Z,13.75
2023-02-17T18:07:21.279Z,13.69
2023-02-17T18:09:52.537Z,13.62
2023-02-17T18:12:24.164Z,13.58
2023-02-17T18:14:57.062Z,13.79
2023-02-17T18:17:28.424Z,13.88
2023-02-17T18:19:59.721Z,13.91
2023-02-17T18:22:31.176Z,13.88
2023-02-17T18:25:02.487Z,14.02
2023-02-17T18:27:39.039Z,14.16
2023-02-17T18:30:11.173Z,14.22
2023-02-17T18:32:44.042Z,14.31
2023-02-17T18:35:15.659Z,14.40
2023-02-17T18:37:47.756Z,14.36
2023-02-17T18:40:21.720Z,14.55
2023-02-17T18:42:52.682Z,14.54
2023-02-17T18:45:25.000Z,14.79
2023-02-17T18:47:56.448Z,15.07
2023-02-17T18:50:28.154Z,15.27
2023-02-17T18:52:59.279Z,15.30
2023-02-17T18:55:30.396Z,15.41
2023-02-17T18:58:01.531Z,15.49
2023-02-17T19:00:32.549Z,15.48
2023-02-17T19:03:03.706Z,15.51
2023-02-17T19:05:35.159Z,15.77
2023-02-17T19:08:06.468Z,16.08
2023-02-17T19:10:37.798Z,16.28
2023-02-17T19:13:08.708Z,16.22
2023-02-17T19:15:39.886Z,16.61
2023-02-17T19:18:11.383Z,16.78
2023-02-17T19:20:46.420Z,16.76
2023-02-17T19:23:17.675Z,16.87
2023-02-17T19:25:48.828Z,17.17
2023-02-17T19:28:19.969Z,17.14
2023-02-17T19:30:51.390Z,17.34
2023-02-17T19:33:22.529Z,17.46
2023-02-17T19:35:54.480Z,17.81
2023-02-17T19:38:24.924Z,17.94
2023-02-17T19:40:56.653Z,18.15
2023-02-17T19:43:27.846Z,18.21
2023-02-17T19:45:59.356Z,18.58
2023-02-17T19:48:30.665Z,18.42
2023-02-17T19:51:03.726Z,18.66
2023-02-17T19:53:35.829Z,18.38
2023-02-17T19:56:21.095Z,18.86
2023-02-17T19:58:52.663Z,18.93
2023-02-17T20:01:27.283Z,19.34
2023-02-17T20:04:00.108Z,19.09
2023-02-17T20:06:51.145Z,19.76
2023-02-17T20:09:24.184Z,19.71
2023-02-17T20:11:55.596Z,20.36
2023-02-17T20:14:26.905Z,19.96
2023-02-17T20:16:58.034Z,20.65
2023-02-17T20:19:30.215Z,20.55
2023-02-17T20:22:02.610Z,20.45
2023-02-17T20:24:34.280Z,20.70
2023-02-17T20:27:05.550Z,20.70
2023-02-17T20:29:37.763Z,21.14
2023-02-17T20:32:09.864Z,21.41
2023-02-17T20:34:42.285Z,21.55
2023-02-17T20:37:13.417Z,21.39
2023-02-17T20:39:44.693Z,21.16
2023-02-17T20:42:16.204Z,21.85
2023-02-17T20:44:50.249Z,21.93
2023-02-17T20:47:21.457Z,21.92
2023-02-17T20:49:52.685Z,21.51
2023-02-17T20:52:24.004Z,22.06
2023-02-17T20:54:55.140Z,22.49
2023-02-17T20:57:26.460Z,22.54
2023-02-17T20:59:57.909Z,22.93
2023-02-17T21:02:29.303Z,23.35
2023-02-17T21:05:00.470Z,23.50
2023-02-17T21:07:33.061Z,23.75
2023-02-17T21:10:04.143Z,22.84
2023-02-17T21:12:35.394Z,23.11
2023-02-17T21:15:06.486Z,23.48
2023-02-17T21:17:38.246Z,24.16
2023-02-17T21:20:11.180Z,23.81
2023-02-17T21:22:42.884Z,23.53
2023-02-17T21:25:14.097Z,24.09
2023-02-17T21:27:45.021Z,24.55
2023-02-17T21:30:16.716Z,24.91
2023-02-17T21:32:47.966Z,24.31
2023-02-17T21:35:19.423Z,24.68
2023-02-17T21:37:50.853Z,24.57
2023-02-17T21:40:22.059Z,24.11
2023-02-17T21:43:11.846Z,25.16
2023-02-17T21:45:45.988Z,25.39
2023-02-17T21:48:17.014Z,25.36
2023-02-17T21:50:47.915Z,25.32
2023-02-17T21:53:19.103Z,25.66
2023-02-17T21:55:50.341Z,26.30
2023-02-17T21:58:21.860Z,25.71
2023-02-17T22:00:52.774Z,24.38
2023-02-17T22:03:23.968Z,24.66
2023-02-17T22:05:54.602Z,25.57
2023-02-17T22:08:26.517Z,25.91
2023-02-17T22:10:57.937Z,26.86
2023-02-17T22:13:29.231Z,26.48
2023-02-17T22:16:00.882Z,26.21
2023-02-17T22:18:32.061Z,26.17
2023-02-17T22:21:03.121Z,26.22
2023-02-17T22:23:33.829Z,25.25
2023-02-17T22:26:12.060Z,24.96
2023-02-17T22:28:43.248Z,24.64
2023-02-17T22:31:14.808Z,24.24
2023-02-17T22:33:46.171Z,23.33
2023-02-17T22:36:23.533Z,23.69
2023-02-17T22:38:55.498Z,23.79
2023-02-17T22:41:27.804Z,23.58
2023-02-17T22:43:59.631Z,23.56
2023-02-17T22:46:31.446Z,23.76
2023-02-17T22:49:03.481Z,24.59
2023-02-17T22:51:39.040Z,24.49
2023-02-17T22:54:10.981Z,24.64
2023-02-17T22:56:42.556Z,25.39
2023-02-17T22:59:13.259Z,27.09
2023-02-17T23:01:44.731Z,26.26
2023-02-17T23:04:16.755Z,26.93
2023-02-17T23:06:48.225Z,28.70
2023-02-17T23:09:20.613Z,28.21
2023-02-17T23:11:51.964Z,28.18
2023-02-17T23:14:42.966Z,27.94
2023-02-17T23:17:15.076Z,28.18
2023-02-17T23:19:46.629Z,28.48
2023-02-17T23:22:18.455Z,28.77
2023-02-17T23:24:50.249Z,28.79
2023-02-17T23:27:21.816Z,27.34
2023-02-17T23:29:53.661Z,28.28
2023-02-17T23:32:24.893Z,29.50
2023-02-17T23:34:55.320Z,28.97
2023-02-17T23:37:26.480Z,29.55
2023-02-17T23:39:57.495Z,27.89
2023-02-17T23:42:28.973Z,28.23
2023-02-17T23:45:00.661Z,27.39
2023-02-17T23:47:33.772Z,26.89
2023-02-17T23:50:05.408Z,26.46
2023-02-17T23:52:36.923Z,26.91
2023-02-17T23:55:08.796Z,26.79
2023-02-17T23:57:43.227Z,25.69
